Panora, Iowa
Current Conditions -  °F | °C
As of 12:15 AM on Thursday 29 Jan 2015 (Local Time) from KADU Reporting Station
Scattered Clouds Scattered Clouds  
Wind Chill: 26°   Ceiling: Unl
Heat Index: 37°   Visibility: 10mi
Dew Point: 34°   Wind: 23mph
Humidity: 87%   Direction: 330°NNW
Pressure: 29.91"   Gusts: 33mph
Location:  41.69°N, 94.36°W
Report Text: KADU 290615Z AUTO 33020G29KT 10SM SCT017 03/01 A2991 RMK AO2
Loading
Personal Weather Stations






























Interactive Weather Map New forecast layout! Learn more

10-Day Weather Forecast

Advertisements
Track Severe Weather on mobile